Time;durP1;ratioP1;P1;durP2;ratioP2;P2;SDS_P1;SDS_P2;PMS_P1;PMS_P2;Temp;Humidity;BMP_temperature;BMP_pressure;BME280_temperature;BME280_humidity;BME280_pressure;Samples;Min_cycle;Max_cycle;Signal;HPM_P1;HPM_P2
2022/06/28 00:00:29;;;;;;;1.25;0.50;;;17.30;99.90;;;;;;5021824;28;20025;-84
2022/06/28 00:02:54;;;;;;;1.23;0.50;;;17.20;99.90;;;;;;4997063;28;20030;-84
2022/06/28 00:05:20;;;;;;;1.13;0.60;;;17.20;99.90;;;;;;5019898;28;20512;-84
2022/06/28 00:07:46;;;;;;;1.25;0.63;;;17.30;99.90;;;;;;5013297;28;20040;-83
2022/06/28 00:10:14;;;;;;;0.68;0.40;;;17.30;99.90;;;;;;4993642;28;20044;-85
2022/06/28 00:12:39;;;;;;;1.23;0.45;;;17.30;99.90;;;;;;5012873;28;20033;-86
2022/06/28 00:17:53;;;;;;;0.77;0.40;;;17.30;99.90;;;;;;5024867;28;20048;-85
2022/06/28 00:20:19;;;;;;;0.57;0.32;;;17.30;99.90;;;;;;5010877;28;20117;-84
2022/06/28 00:22:44;;;;;;;1.15;0.50;;;17.30;99.90;;;;;;5010174;28;20072;-84
2022/06/28 00:25:11;;;;;;;4.53;0.52;;;17.30;99.90;;;;;;5008553;28;20030;-84
2022/06/28 00:27:38;;;;;;;1.92;0.40;;;17.30;99.90;;;;;;5009370;28;20029;-84
2022/06/28 00:30:05;;;;;;;1.58;0.52;;;17.30;99.90;;;;;;4992226;28;20578;-84
2022/06/28 00:32:32;;;;;;;1.02;0.28;;;17.20;99.90;;;;;;5013306;28;20065;-83
2022/06/28 00:34:59;;;;;;;1.00;0.50;;;17.20;99.90;;;;;;4988286;28;20573;-84
2022/06/28 00:37:25;;;;;;;0.95;0.40;;;17.20;99.90;;;;;;5006174;28;20038;-85
2022/06/28 00:39:51;;;;;;;0.98;0.40;;;17.20;99.90;;;;;;5007760;28;20102;-84
2022/06/28 00:42:17;;;;;;;0.43;0.20;;;17.20;99.90;;;;;;5007888;28;20018;-85
2022/06/28 00:44:43;;;;;;;1.90;0.40;;;17.20;99.90;;;;;;5006290;28;20040;-84
2022/06/28 00:47:09;;;;;;;0.32;0.20;;;17.10;99.90;;;;;;5004571;28;20026;-84
2022/06/28 00:49:42;;;;;;;1.52;0.60;;;17.10;99.90;;;;;;4989110;28;20022;-85
2022/06/28 00:52:10;;;;;;;0.60;0.30;;;17.00;99.90;;;;;;5005323;28;20046;-83
2022/06/28 00:54:36;;;;;;;0.50;0.20;;;16.90;99.90;;;;;;4986335;28;20021;-84
2022/06/28 00:57:02;;;;;;;1.67;0.20;;;16.90;99.90;;;;;;5004144;28;20022;-83
2022/06/28 00:59:28;;;;;;;0.30;0.10;;;16.80;99.90;;;;;;5014592;28;20041;-85
2022/06/28 01:01:55;;;;;;;0.55;0.28;;;16.80;99.90;;;;;;5008050;28;20037;-84
2022/06/28 01:04:24;;;;;;;0.52;0.20;;;16.80;99.90;;;;;;4985458;28;20030;-85
2022/06/28 01:06:51;;;;;;;0.93;0.20;;;16.80;99.90;;;;;;4989933;28;20026;-85
2022/06/28 01:09:16;;;;;;;0.73;0.30;;;16.70;99.90;;;;;;4996433;28;20026;-85
2022/06/28 01:11:42;;;;;;;0.60;0.22;;;16.60;99.90;;;;;;5010682;28;20033;-84
2022/06/28 01:14:08;;;;;;;0.95;0.22;;;16.60;99.90;;;;;;4991289;28;20079;-84
2022/06/28 01:16:35;;;;;;;2.08;0.30;;;16.60;99.90;;;;;;5007303;28;20023;-83
2022/06/28 01:19:01;;;;;;;0.60;0.10;;;16.60;99.90;;;;;;5018886;28;20524;-83
2022/06/28 01:21:29;;;;;;;0.63;0.20;;;16.60;99.90;;;;;;4994749;28;20030;-84
2022/06/28 01:23:56;;;;;;;0.98;0.30;;;16.70;99.90;;;;;;5009054;28;20020;-84
2022/06/28 01:26:23;;;;;;;0.52;0.30;;;16.60;99.90;;;;;;5013667;28;20141;-83
2022/06/28 01:28:50;;;;;;;0.57;0.30;;;16.60;99.90;;;;;;5008663;28;20036;-85
2022/06/28 01:31:18;;;;;;;2.95;0.30;;;16.70;99.90;;;;;;5007345;28;20027;-83
2022/06/28 01:33:44;;;;;;;0.60;0.30;;;16.70;99.90;;;;;;5012511;28;20108;-84
2022/06/28 01:41:32;;;;;;;0.30;0.20;;;16.70;99.90;;;;;;5015669;28;20047;-87
2022/06/28 01:43:59;;;;;;;0.80;0.20;;;16.70;99.90;;;;;;5004544;28;20030;-86
2022/06/28 01:46:26;;;;;;;0.88;0.40;;;16.70;99.90;;;;;;5018092;28;20419;-86
2022/06/28 01:48:52;;;;;;;0.50;0.20;;;16.70;99.90;;;;;;4993241;28;20053;-87
2022/06/28 01:51:18;;;;;;;0.40;0.20;;;16.70;99.90;;;;;;4991028;28;20049;-87
2022/06/28 01:53:46;;;;;;;1.30;0.40;;;16.70;99.90;;;;;;4996955;28;20060;-87
2022/06/28 01:56:16;;;;;;;1.08;0.20;;;16.70;99.90;;;;;;4998029;28;20026;-87
2022/06/28 01:58:42;;;;;;;0.60;0.30;;;16.70;99.90;;;;;;5003581;28;20029;-87
2022/06/28 02:01:08;;;;;;;0.95;0.30;;;16.70;99.90;;;;;;5011676;28;20026;-87
2022/06/28 02:03:41;;;;;;;2.15;0.30;;;16.70;99.90;;;;;;4997050;28;20028;-87
2022/06/28 02:06:09;;;;;;;0.85;0.20;;;16.70;99.90;;;;;;5009720;28;20026;-87
2022/06/28 02:08:35;;;;;;;1.08;0.35;;;16.70;99.90;;;;;;4998819;28;20033;-87
2022/06/28 02:11:03;;;;;;;1.10;0.40;;;16.70;99.90;;;;;;5018167;28;20053;-87
2022/06/28 02:13:28;;;;;;;0.50;0.30;;;16.70;99.90;;;;;;5005459;28;20058;-87
2022/06/28 02:18:31;;;;;;;0.52;0.25;;;16.60;99.90;;;;;;5029733;28;20049;-88
2022/06/28 02:20:57;;;;;;;0.70;0.30;;;16.50;99.90;;;;;;5015310;28;20148;-88
2022/06/28 02:23:24;;;;;;;0.52;0.22;;;16.50;99.90;;;;;;4993850;28;20022;-88
2022/06/28 02:25:50;;;;;;;0.80;0.30;;;16.50;99.90;;;;;;4986453;28;20823;-88
2022/06/28 02:28:15;;;;;;;0.93;0.30;;;16.40;99.90;;;;;;4989096;28;20049;-88
2022/06/28 02:30:41;;;;;;;0.77;0.35;;;16.40;99.90;;;;;;4992131;28;20137;-89
2022/06/28 02:33:06;;;;;;;0.60;0.35;;;16.40;99.90;;;;;;4985683;28;20033;-88
2022/06/28 02:41:00;;;;;;;0.80;0.30;;;16.30;99.90;;;;;;5012868;28;20033;-88
2022/06/28 02:43:26;;;;;;;0.88;0.38;;;16.30;99.90;;;;;;4995697;28;20026;-88
2022/06/28 02:45:52;;;;;;;3.35;0.40;;;16.20;99.90;;;;;;4980080;28;20447;-88
2022/06/28 02:48:17;;;;;;;0.98;0.20;;;16.20;99.90;;;;;;4994426;28;20025;-88
2022/06/28 02:50:43;;;;;;;0.90;0.30;;;16.20;99.90;;;;;;5006646;28;20157;-88
2022/06/28 02:53:09;;;;;;;0.90;0.32;;;16.20;99.90;;;;;;4994169;28;20112;-88
2022/06/28 02:55:34;;;;;;;0.57;0.30;;;16.10;99.90;;;;;;4982099;28;20022;-89
2022/06/28 02:58:00;;;;;;;0.85;0.35;;;16.10;99.90;;;;;;4991720;28;20057;-88
2022/06/28 03:00:26;;;;;;;1.30;0.30;;;16.00;99.90;;;;;;4993607;28;20075;-88
2022/06/28 03:02:52;;;;;;;0.40;0.30;;;16.00;99.90;;;;;;4984481;28;20072;-88
2022/06/28 03:05:20;;;;;;;1.33;0.50;;;16.00;99.90;;;;;;4980944;28;20026;-88
2022/06/28 03:07:46;;;;;;;0.60;0.30;;;16.00;99.90;;;;;;4983061;28;20108;-87
2022/06/28 03:10:13;;;;;;;1.75;0.40;;;16.00;99.90;;;;;;4979711;28;20472;-89
2022/06/28 03:12:39;;;;;;;0.90;0.30;;;16.00;99.90;;;;;;4994525;28;20053;-88
2022/06/28 03:15:09;;;;;;;0.73;0.40;;;15.90;99.90;;;;;;4985297;28;20033;-88
2022/06/28 03:17:34;;;;;;;1.15;0.40;;;16.00;99.90;;;;;;4990602;28;20026;-88
2022/06/28 03:20:00;;;;;;;2.05;0.32;;;15.90;99.90;;;;;;4990201;28;20118;-88
2022/06/28 03:22:26;;;;;;;1.35;0.40;;;15.90;99.90;;;;;;4984056;28;20400;-89
2022/06/28 03:24:52;;;;;;;0.88;0.40;;;15.90;99.90;;;;;;4990595;28;20065;-87
2022/06/28 03:27:17;;;;;;;1.52;0.40;;;15.90;99.90;;;;;;4984639;28;20057;-89
2022/06/28 03:29:43;;;;;;;1.05;0.38;;;15.90;99.90;;;;;;4987958;28;20034;-88
2022/06/28 03:32:09;;;;;;;0.77;0.38;;;16.00;99.90;;;;;;4981922;28;20145;-87
2022/06/28 03:34:34;;;;;;;1.42;0.50;;;16.00;99.90;;;;;;4997350;28;20033;-88
2022/06/28 03:37:00;;;;;;;0.85;0.30;;;16.00;99.90;;;;;;4983095;28;20026;-88
2022/06/28 03:39:26;;;;;;;0.80;0.30;;;16.00;99.90;;;;;;4980597;28;20029;-86
2022/06/28 03:41:51;;;;;;;1.05;0.40;;;16.00;99.90;;;;;;4977561;28;20563;-87
2022/06/28 03:44:17;;;;;;;1.38;0.55;;;16.00;99.90;;;;;;4999042;28;20431;-87
2022/06/28 03:46:43;;;;;;;1.38;0.50;;;16.00;99.90;;;;;;4990640;28;20045;-87
2022/06/28 03:49:08;;;;;;;1.83;0.65;;;16.10;99.90;;;;;;4982126;28;20487;-87
2022/06/28 03:51:34;;;;;;;1.27;0.55;;;16.10;99.90;;;;;;4977846;28;20041;-87
2022/06/28 03:54:00;;;;;;;0.90;0.40;;;16.10;99.90;;;;;;4985399;28;20029;-88
2022/06/28 03:56:26;;;;;;;0.88;0.38;;;16.10;99.90;;;;;;4987212;28;20439;-87
2022/06/28 03:58:51;;;;;;;1.02;0.40;;;16.10;99.90;;;;;;4980178;28;20038;-86
2022/06/28 04:01:17;;;;;;;1.65;0.73;;;16.20;99.90;;;;;;4990009;28;20554;-87
2022/06/28 04:03:43;;;;;;;1.67;0.40;;;16.20;99.90;;;;;;4982049;28;20026;-88
2022/06/28 04:06:09;;;;;;;1.40;0.55;;;16.20;99.90;;;;;;5006347;28;20049;-88
2022/06/28 04:08:35;;;;;;;1.83;0.45;;;16.20;99.90;;;;;;4984439;28;20506;-88
2022/06/28 04:11:16;;;;;;;1.27;0.45;;;16.20;99.90;;;;;;4983126;28;20025;-88
2022/06/28 04:13:47;;;;;;;0.90;0.30;;;16.30;99.90;;;;;;4979427;28;20010;-87
2022/06/28 04:16:13;;;;;;;0.80;0.30;;;16.30;99.90;;;;;;5001923;28;20026;-88
2022/06/28 04:18:40;;;;;;;0.90;0.20;;;16.30;99.90;;;;;;4984250;28;20022;-88
2022/06/28 04:21:06;;;;;;;1.05;0.40;;;16.30;99.90;;;;;;4990993;28;20025;-88
2022/06/28 04:23:31;;;;;;;1.15;0.52;;;16.30;99.90;;;;;;4995522;28;20363;-88
2022/06/28 04:25:57;;;;;;;0.68;0.30;;;16.40;99.90;;;;;;4982538;28;20113;-87
2022/06/28 04:28:23;;;;;;;1.60;0.40;;;16.40;99.90;;;;;;4982252;28;20069;-88
2022/06/28 04:30:48;;;;;;;0.80;0.40;;;16.40;99.90;;;;;;4978093;28;20054;-88
2022/06/28 04:33:14;;;;;;;0.80;0.40;;;16.50;99.90;;;;;;4983698;28;20019;-88
2022/06/28 04:35:40;;;;;;;1.88;0.60;;;16.50;99.90;;;;;;4991535;28;20054;-92
2022/06/28 04:38:06;;;;;;;1.45;0.40;;;16.50;99.90;;;;;;4993190;28;20029;-94
2022/06/28 04:40:34;;;;;;;0.80;0.40;;;16.50;99.90;;;;;;4989845;28;20026;-92
2022/06/28 04:43:00;;;;;;;0.82;0.32;;;16.40;99.90;;;;;;4993707;28;20523;-91
2022/06/28 04:45:26;;;;;;;1.40;0.60;;;16.40;99.90;;;;;;4992022;28;20060;-90
2022/06/28 04:47:57;;;;;;;1.05;0.50;;;16.50;99.90;;;;;;4992052;28;20030;-93
2022/06/28 04:50:23;;;;;;;1.40;0.50;;;16.50;99.90;;;;;;5002962;28;20026;-92
2022/06/28 04:52:49;;;;;;;2.03;0.50;;;16.60;99.90;;;;;;4998953;28;20376;-92
2022/06/28 04:55:16;;;;;;;1.55;0.55;;;16.60;99.90;;;;;;4996750;28;20021;-92
2022/06/28 04:57:43;;;;;;;2.10;0.70;;;16.60;99.90;;;;;;4992169;28;20044;-91
2022/06/28 05:00:14;;;;;;;1.73;0.60;;;16.60;99.90;;;;;;4997339;28;20022;-92
2022/06/28 05:02:40;;;;;;;1.40;0.40;;;16.60;99.90;;;;;;4998429;28;20029;-92
2022/06/28 05:05:08;;;;;;;2.47;0.80;;;16.60;99.90;;;;;;5005460;28;20034;-92
2022/06/28 05:07:37;;;;;;;1.15;0.50;;;16.70;99.90;;;;;;4999353;28;20242;-92
2022/06/28 05:10:04;;;;;;;1.33;0.50;;;16.60;99.90;;;;;;4985678;28;20108;-93
2022/06/28 05:12:35;;;;;;;2.08;0.85;;;16.70;99.90;;;;;;4998333;28;20026;-92
2022/06/28 05:15:01;;;;;;;2.33;0.82;;;16.60;99.90;;;;;;4998529;28;20033;-91
2022/06/28 05:17:27;;;;;;;1.92;0.90;;;16.50;99.90;;;;;;5008583;28;20091;-92
2022/06/28 05:19:55;;;;;;;2.03;0.90;;;16.50;99.90;;;;;;5012601;28;20057;-92
2022/06/28 05:22:26;;;;;;;2.38;0.80;;;16.50;99.90;;;;;;5002108;28;20019;-91
2022/06/28 05:24:53;;;;;;;2.95;1.08;;;16.50;99.90;;;;;;4995699;28;20041;-91
2022/06/28 05:27:36;;;;;;;2.35;0.85;;;16.40;99.90;;;;;;4990853;28;20030;-93
2022/06/28 05:30:03;;;;;;;3.53;1.00;;;16.50;99.90;;;;;;4993893;28;20092;-90
2022/06/28 05:32:29;;;;;;;2.78;1.30;;;16.50;99.90;;;;;;5006655;28;20053;-92
2022/06/28 05:34:55;;;;;;;3.22;1.58;;;16.60;99.90;;;;;;4998256;28;20033;-92
2022/06/28 05:37:20;;;;;;;3.70;1.48;;;16.70;99.90;;;;;;5001214;28;20192;-93
2022/06/28 05:39:49;;;;;;;3.10;1.58;;;16.70;99.90;;;;;;4995626;28;20064;-92
2022/06/28 05:42:16;;;;;;;3.63;1.50;;;16.80;99.90;;;;;;4984155;28;20029;-91
2022/06/28 05:44:42;;;;;;;3.33;1.67;;;16.80;99.90;;;;;;4986463;28;20030;-92
2022/06/28 05:47:10;;;;;;;3.65;1.58;;;16.90;99.90;;;;;;4990380;28;20030;-93
2022/06/28 05:49:36;;;;;;;3.55;1.73;;;16.90;99.90;;;;;;4991451;28;20026;-91
2022/06/28 05:52:02;;;;;;;3.85;1.98;;;17.00;99.90;;;;;;4986624;28;20026;-91
2022/06/28 05:54:27;;;;;;;3.65;1.95;;;17.00;99.90;;;;;;4990778;28;20512;-93
2022/06/28 05:57:12;;;;;;;3.67;2.00;;;17.10;99.90;;;;;;4997558;28;20052;-93
2022/06/28 06:00:17;;;;;;;;;;;;;;;;;;;;;
2022/06/28 06:06:01;;;;;;;5.47;1.83;;;17.60;99.90;;;;;;1482365;26;20132;-88
2022/06/28 06:08:59;;;;;;;4.20;2.22;;;17.70;99.90;;;;;;4986445;28;20033;-87
2022/06/28 06:11:30;;;;;;;5.05;2.70;;;17.80;99.90;;;;;;4991209;28;20410;-88
2022/06/28 06:14:05;;;;;;;3.60;2.35;;;17.60;99.90;;;;;;4993095;28;20094;-87
2022/06/28 06:17:03;;;;;;;3.97;2.00;;;17.70;99.90;;;;;;4977237;28;20030;-88
2022/06/28 06:20:02;;;;;;;;;;;;;;;;;;;;;
2022/06/28 06:22:34;;;;;;;4.05;2.15;;;17.90;99.90;;;;;;4990752;28;20550;-87
2022/06/28 06:25:03;;;;;;;;;;;17.90;99.90;;;;;;4976051;28;20042;-88
2022/06/28 06:27:32;;;;;;;3.78;2.20;;;18.00;99.90;;;;;;4992291;28;19913;-88
2022/06/28 06:30:42;;;;;;;6.55;2.30;;;17.80;99.90;;;;;;4973304;28;20056;-88
2022/06/28 06:33:26;;;;;;;4.35;2.17;;;17.90;99.90;;;;;;4972421;28;20114;-88
2022/06/28 06:36:11;;;;;;;4.43;2.35;;;17.90;99.90;;;;;;4991424;28;20577;-88
2022/06/28 06:42:14;;;;;;;4.18;2.22;;;17.90;99.90;;;;;;4990480;28;20032;-88
2022/06/28 06:44:46;;;;;;;3.90;2.28;;;18.00;99.90;;;;;;4915914;29;20605;-90
2022/06/28 06:47:12;;;;;;;4.10;1.92;;;18.10;99.90;;;;;;4921188;29;20567;-88
2022/06/28 06:49:37;;;;;;;4.38;2.35;;;18.20;99.90;;;;;;4965507;28;20070;-87
2022/06/28 06:52:03;;;;;;;4.57;2.47;;;18.30;99.90;;;;;;4985052;28;20497;-88
2022/06/28 06:54:29;;;;;;;4.80;2.38;;;18.30;99.90;;;;;;4976969;28;20056;-91
2022/06/28 06:56:55;;;;;;;4.20;1.98;;;18.20;99.90;;;;;;4976233;28;20108;-91
2022/06/28 06:59:20;;;;;;;4.55;2.47;;;18.10;99.90;;;;;;4972037;28;20040;-91
2022/06/28 07:01:46;;;;;;;4.20;2.10;;;18.10;99.90;;;;;;4978489;28;20138;-91
2022/06/28 07:04:14;;;;;;;4.68;2.30;;;17.90;99.90;;;;;;4987215;28;20033;-90
2022/06/28 07:06:40;;;;;;;4.28;2.40;;;17.90;99.90;;;;;;4973388;28;20105;-92
2022/06/28 07:09:06;;;;;;;4.45;2.75;;;17.60;99.90;;;;;;4996775;28;20065;-91
2022/06/28 07:11:33;;;;;;;5.68;2.78;;;17.80;99.90;;;;;;4996487;28;20101;-89
2022/06/28 07:13:58;;;;;;;4.30;2.58;;;17.70;99.90;;;;;;4994529;28;20053;-91
2022/06/28 07:16:47;;;;;;;4.70;2.83;;;17.50;99.90;;;;;;4977048;28;20030;-90
2022/06/28 07:19:14;;;;;;;4.57;2.67;;;17.50;99.90;;;;;;4995007;28;20022;-91
2022/06/28 07:21:44;;;;;;;5.20;3.03;;;17.40;99.90;;;;;;4995254;28;20032;-90
2022/06/28 07:24:13;;;;;;;5.18;2.95;;;17.30;99.90;;;;;;4981355;28;20030;-92
2022/06/28 07:26:39;;;;;;;5.53;2.97;;;17.30;99.90;;;;;;4995486;28;20085;-91
2022/06/28 07:29:08;;;;;;;5.43;3.15;;;17.30;99.90;;;;;;4976626;28;20046;-91
2022/06/28 07:31:44;;;;;;;5.25;2.92;;;17.30;99.90;;;;;;4979766;28;20493;-92
2022/06/28 07:34:19;;;;;;;4.45;2.60;;;17.20;99.90;;;;;;4997095;28;20030;-91
2022/06/28 07:37:23;;;;;;;5.32;3.22;;;17.20;99.90;;;;;;4999728;22;20072;-85
2022/06/28 07:40:11;;;;;;;;;;;;;;;;;;;;;
2022/06/28 07:43:01;;;;;;;;;;;;;;;;;;;;;
2022/06/28 07:45:48;;;;;;;5.97;3.20;;;18.00;99.90;;;;;;5018724;28;20030;-89
2022/06/28 07:48:28;;;;;;;4.28;2.33;;;18.20;99.90;;;;;;4988413;28;20567;-90
2022/06/28 07:54:16;;;;;;;4.18;2.15;;;18.50;99.90;;;;;;5004910;28;20513;-90
2022/06/28 07:56:47;;;;;;;5.25;2.88;;;18.90;99.90;;;;;;4989472;28;20030;-90
2022/06/28 07:59:22;;;;;;;6.43;2.40;;;19.30;99.90;;;;;;4990919;28;20021;-90
2022/06/28 08:02:23;;;;;;;4.75;2.53;;;19.80;99.90;;;;;;4984242;28;20375;-90
2022/06/28 08:04:49;;;;;;;4.88;2.40;;;19.90;99.90;;;;;;4984624;28;20040;-90
2022/06/28 08:07:15;;;;;;;4.82;2.45;;;20.00;99.90;;;;;;4988781;28;20474;-90
2022/06/28 08:10:20;;;;;;;3.47;2.00;;;19.90;99.90;;;;;;4997206;28;20049;-90
2022/06/28 08:13:17;;;;;;;7.28;2.40;;;19.80;99.90;;;;;;4989842;28;20038;-90
2022/06/28 08:16:03;;;;;;;;;;;;;;;;;;;;;
2022/06/28 08:18:45;;;;;;;;;;;;;;;;;;;;;
2022/06/28 08:21:21;;;;;;;;;;;20.60;99.90;;;;;;5007424;28;20038;-87
2022/06/28 08:26:54;;;;;;;4.13;2.40;;;20.80;99.90;;;;;;5010224;28;20017;-90
2022/06/28 08:29:42;;;;;;;3.83;2.00;;;20.80;99.90;;;;;;4990971;28;20041;-91
2022/06/28 08:32:37;;;;;;;2.85;1.42;;;21.00;99.90;;;;;;4996682;28;20057;-89
2022/06/28 08:35:18;;;;;;;3.03;1.30;;;21.20;99.90;;;;;;4986316;28;20711;-90
2022/06/28 08:41:07;;;;;;;3.67;2.00;;;20.80;99.90;;;;;;5001734;28;20053;-89
2022/06/28 08:43:40;;;;;;;3.58;1.60;;;20.80;99.90;;;;;;5010104;28;20054;-89
2022/06/28 08:46:43;;;;;;;3.75;2.00;;;20.70;99.90;;;;;;4983457;28;20035;-91
2022/06/28 08:55:54;;;;;;;3.05;1.45;;;20.60;99.90;;;;;;4993018;28;20030;-91
2022/06/28 08:59:10;;;;;;;3.05;1.60;;;20.50;99.90;;;;;;5007425;28;20022;-90
2022/06/28 09:04:46;;;;;;;3.38;1.25;;;20.70;99.90;;;;;;5014141;28;20032;-90
2022/06/28 09:11:31;;;;;;;;;;;;;;;;;;;;;
2022/06/28 09:14:47;;;;;;;;;;;;;;;;;;;;;
2022/06/28 09:18:04;;;;;;;3.05;1.42;;;22.10;99.90;;;;;;5001224;28;20038;-90
2022/06/28 09:21:15;;;;;;;2.65;1.20;;;21.70;99.90;;;;;;4973000;28;20049;-91
2022/06/28 09:24:20;;;;;;;3.30;1.10;;;21.60;99.90;;;;;;5005897;28;20030;-91
2022/06/28 09:27:44;;;;;;;2.38;1.20;;;21.80;99.90;;;;;;5006949;28;20034;-90
2022/06/28 09:31:08;;;;;;;;;;;;;;;;;;;;;
2022/06/28 09:37:18;;;;;;;1.52;0.75;;;22.20;99.90;;;;;;4907018;29;20475;-91
2022/06/28 09:44:05;;;;;;;2.08;0.85;;;22.30;99.90;;;;;;4852740;29;20040;-89
2022/06/28 09:46:34;;;;;;;2.05;0.90;;;21.90;99.90;;;;;;4916987;29;20034;-90
2022/06/28 09:53:02;;;;;;;2.55;1.00;;;21.90;99.90;;;;;;4973526;28;20015;-91
2022/06/28 10:22:43;;;;;;;1.77;0.68;;;23.60;99.90;;;;;;4845605;26;20395;-90
2022/06/28 10:30:05;;;;;;;;;;;;;;;;;;;;;
2022/06/28 10:55:29;;;;;;;1.55;0.50;;;24.00;99.90;;;;;;5023205;28;20116;-89
2022/06/28 11:02:09;;;;;;;0.70;0.38;;;24.30;99.90;;;;;;5001641;28;20561;-90
2022/06/28 11:05:04;;;;;;;1.38;0.60;;;24.80;99.90;;;;;;5023163;28;20029;-92
2022/06/28 11:08:05;;;;;;;1.10;0.60;;;25.00;99.90;;;;;;5022068;28;20041;-90
2022/06/28 11:11:08;;;;;;;2.35;0.65;;;25.20;99.90;;;;;;5030607;28;20055;-88
2022/06/28 11:14:11;;;;;;;0.95;0.50;;;25.40;99.90;;;;;;5015832;28;20025;-90
2022/06/28 11:16:48;;;;;;;0.75;0.30;;;24.90;99.90;;;;;;5020633;28;20082;-90
2022/06/28 11:22:43;;;;;;;3.97;0.50;;;24.70;99.90;;;;;;5038415;28;20120;-88
2022/06/28 11:27:19;;;;;;;0.93;0.47;;;24.70;99.90;;;;;;5038683;28;20155;-89
2022/06/28 11:28:43;;;;;;;1.33;0.45;;;24.50;99.90;;;;;;5036851;28;20026;-90
2022/06/28 11:31:25;;;;;;;0.75;0.32;;;24.20;99.90;;;;;;5006162;28;20037;-90
2022/06/28 11:34:26;;;;;;;0.50;0.30;;;24.00;99.90;;;;;;5006210;28;20026;-91
2022/06/28 11:37:08;;;;;;;1.20;0.60;;;23.70;99.90;;;;;;5011161;28;20095;-89
2022/06/28 11:39:41;;;;;;;1.20;0.40;;;23.90;99.90;;;;;;5029527;28;20475;-90
2022/06/28 11:42:12;;;;;;;1.08;0.50;;;23.90;99.90;;;;;;5022996;28;20079;-91
2022/06/28 11:44:50;;;;;;;1.20;0.40;;;23.90;99.90;;;;;;5015446;28;20116;-89
2022/06/28 11:50:49;;;;;;;0.95;0.40;;;24.10;99.90;;;;;;4989110;28;20052;-91
2022/06/28 11:54:10;;;;;;;0.38;0.25;;;24.40;99.90;;;;;;5007036;28;20440;-90
2022/06/28 12:00:31;;;;;;;1.67;0.30;;;24.50;99.90;;;;;;4998111;28;20064;-90
2022/06/28 12:03:42;;;;;;;0.52;0.30;;;24.50;99.90;;;;;;5024702;28;20033;-90
2022/06/28 12:07:09;;;;;;;1.38;0.30;;;24.70;99.90;;;;;;5005725;28;20117;-91
2022/06/28 12:10:02;;;;;;;0.95;0.30;;;24.90;99.90;;;;;;4918156;29;20453;-87
2022/06/28 12:13:19;;;;;;;0.80;0.30;;;25.00;99.90;;;;;;4919147;29;20132;-91
2022/06/28 12:16:40;;;;;;;1.17;0.30;;;25.30;99.90;;;;;;5012884;28;20029;-90
2022/06/28 12:19:41;;;;;;;2.05;0.30;;;25.50;99.90;;;;;;4993516;28;20061;-90
2022/06/28 12:22:41;;;;;;;0.50;0.30;;;25.30;99.90;;;;;;4975912;28;20026;-90
2022/06/28 12:29:31;;;;;;;;;;;25.30;99.90;;;;;;5026108;28;20025;-89
2022/06/28 12:32:42;;;;;;;;;;;;;;;;;;;;;
2022/06/28 12:38:10;;;;;;;2.83;0.52;;;25.10;99.90;;;;;;4953310;28;20085;-92
2022/06/28 12:41:21;;;;;;;;;;;;;;;;;;;;;
2022/06/28 12:43:59;;;;;;;0.43;0.23;;;24.60;99.90;;;;;;5017017;28;20513;-91
2022/06/28 12:49:33;;;;;;;;;;;;;;;;;;;;;
2022/06/28 12:55:16;;;;;;;1.05;0.30;;;24.40;99.90;;;;;;4985378;28;20027;-91
2022/06/28 13:00:47;;;;;;;0.50;0.13;;;24.40;99.90;;;;;;5014847;28;20026;-92
2022/06/28 13:03:31;;;;;;;0.52;0.25;;;24.40;99.90;;;;;;5007298;28;20018;-92
2022/06/28 13:06:23;;;;;;;1.52;0.47;;;24.20;99.90;;;;;;4987513;28;20050;-91
2022/06/28 13:12:16;;;;;;;;;;;;;;;;;;;;;
2022/06/28 13:14:57;;;;;;;0.40;0.25;;;24.70;99.90;;;;;;5031646;28;20021;-91
2022/06/28 13:17:23;;;;;;;0.88;0.30;;;24.70;99.90;;;;;;5006908;28;20072;-89
2022/06/28 13:19:52;;;;;;;0.57;0.30;;;24.90;99.90;;;;;;5020939;28;20026;-89
2022/06/28 13:22:31;;;;;;;0.63;0.25;;;25.10;99.90;;;;;;4992362;28;20554;-91
2022/06/28 13:24:59;;;;;;;0.22;0.20;;;25.60;99.90;;;;;;4996066;28;20089;-91
2022/06/28 13:27:51;;;;;;;1.02;0.30;;;25.60;99.90;;;;;;5010989;28;20080;-91
2022/06/28 13:34:20;;;;;;;;;;;;;;;;;;;;;
2022/06/28 16:46:04;;;;;;;1.63;0.70;;;24.50;99.90;;;;;;5004303;28;20050;-88
2022/06/28 16:55:32;;;;;;;;;;;24.40;99.90;;;;;;4989355;22;20061;-86
2022/06/28 16:57:57;;;;;;;0.90;0.63;;;24.40;99.90;;;;;;4978815;28;19910;-87
2022/06/28 17:00:23;;;;;;;2.53;0.40;;;24.20;99.90;;;;;;4996609;28;20038;-86
2022/06/28 17:02:50;;;;;;;1.92;0.57;;;24.20;99.90;;;;;;4981354;28;20107;-87
2022/06/28 17:05:16;;;;;;;1.23;0.60;;;24.20;99.90;;;;;;4994241;28;20023;-87
2022/06/28 17:07:43;;;;;;;1.50;0.55;;;24.30;99.90;;;;;;4976092;28;20266;-87
2022/06/28 17:10:10;;;;;;;0.95;0.45;;;24.40;99.90;;;;;;4979092;28;20034;-88
2022/06/28 17:12:40;;;;;;;2.78;0.50;;;24.40;99.90;;;;;;4994172;28;21129;-87
2022/06/28 17:15:06;;;;;;;1.55;0.50;;;24.60;99.90;;;;;;4974553;28;20105;-87
2022/06/28 17:17:32;;;;;;;1.92;0.70;;;24.60;99.90;;;;;;4971424;28;20021;-87
2022/06/28 17:19:58;;;;;;;1.10;0.55;;;24.60;99.90;;;;;;4994371;28;20022;-88
2022/06/28 17:22:26;;;;;;;1.27;0.50;;;24.60;99.90;;;;;;4991627;28;20022;-87
2022/06/28 17:24:52;;;;;;;1.25;0.50;;;24.50;99.90;;;;;;4991451;28;20034;-87
2022/06/28 17:27:18;;;;;;;1.27;0.60;;;24.40;99.90;;;;;;4971079;28;20402;-88
2022/06/28 17:29:44;;;;;;;1.70;0.60;;;24.40;99.90;;;;;;4993944;28;20029;-88
2022/06/28 17:32:10;;;;;;;1.38;0.50;;;24.20;99.90;;;;;;4998474;28;20097;-88
2022/06/28 17:34:41;;;;;;;1.35;0.57;;;24.30;99.90;;;;;;4989098;28;20035;-88
2022/06/28 17:37:07;;;;;;;1.25;0.50;;;24.20;99.90;;;;;;4988373;28;20052;-88
2022/06/28 17:39:34;;;;;;;1.25;0.70;;;24.20;99.90;;;;;;4995562;28;20494;-87
2022/06/28 17:41:59;;;;;;;1.33;0.50;;;24.20;99.90;;;;;;4994257;28;20031;-88
2022/06/28 17:44:25;;;;;;;1.60;0.70;;;24.20;99.90;;;;;;4976171;28;20562;-89
2022/06/28 17:46:51;;;;;;;1.90;0.73;;;24.10;99.90;;;;;;4961277;28;20046;-87
2022/06/28 17:49:21;;;;;;;1.35;0.68;;;23.90;99.90;;;;;;4991682;28;20117;-87
2022/06/28 17:51:48;;;;;;;1.17;0.60;;;23.80;99.90;;;;;;4989796;28;20037;-87
2022/06/28 17:54:16;;;;;;;1.67;0.70;;;23.70;99.90;;;;;;4986389;28;20033;-87
2022/06/28 17:56:42;;;;;;;0.90;0.57;;;23.50;99.90;;;;;;4989078;28;20027;-87
2022/06/28 17:59:08;;;;;;;1.50;0.60;;;23.40;99.90;;;;;;4986483;28;20038;-87
2022/06/28 18:01:36;;;;;;;2.58;0.80;;;23.30;99.90;;;;;;4985741;28;20073;-87
2022/06/28 18:04:02;;;;;;;2.78;0.65;;;23.30;99.90;;;;;;4972144;28;20018;-89
2022/06/28 18:06:28;;;;;;;1.70;0.85;;;23.20;99.90;;;;;;4969670;28;20021;-88
2022/06/28 18:08:54;;;;;;;1.98;0.80;;;23.10;99.90;;;;;;4988599;28;20031;-87
2022/06/28 18:11:21;;;;;;;2.50;0.90;;;23.00;99.90;;;;;;4969785;28;20034;-87
2022/06/28 18:14:00;;;;;;;1.45;0.75;;;23.00;99.90;;;;;;4988436;28;20027;-88
2022/06/28 18:16:32;;;;;;;1.77;0.70;;;22.90;99.90;;;;;;4993690;28;20022;-87
2022/06/28 18:19:02;;;;;;;2.00;1.02;;;22.90;99.90;;;;;;4974760;28;20105;-87
2022/06/28 18:21:31;;;;;;;1.23;0.70;;;22.60;99.90;;;;;;4991986;28;20032;-87
2022/06/28 18:23:57;;;;;;;1.58;0.70;;;22.80;99.90;;;;;;4971151;28;20019;-87
2022/06/28 18:26:29;;;;;;;2.00;0.90;;;22.80;99.90;;;;;;4987565;28;20668;-88
2022/06/28 18:28:55;;;;;;;1.58;0.90;;;22.80;99.90;;;;;;4975200;28;20021;-88
2022/06/28 18:31:21;;;;;;;1.20;0.60;;;22.70;99.90;;;;;;4991129;28;20034;-87
2022/06/28 18:33:57;;;;;;;1.52;0.95;;;22.50;99.90;;;;;;4975334;28;20069;-86
2022/06/28 18:37:02;;;;;;;1.75;0.80;;;22.60;99.90;;;;;;4973748;28;20103;-87
2022/06/28 18:39:31;;;;;;;3.80;0.95;;;22.60;99.90;;;;;;4974535;28;20430;-88
2022/06/28 18:42:00;;;;;;;1.50;0.80;;;22.60;99.90;;;;;;4999324;28;20450;-88
2022/06/28 18:44:45;;;;;;;1.88;0.82;;;22.70;99.90;;;;;;4972937;28;20038;-88
2022/06/28 18:47:34;;;;;;;2.20;1.00;;;22.60;99.90;;;;;;4999774;28;20117;-88
2022/06/28 18:50:14;;;;;;;1.67;0.80;;;22.60;99.90;;;;;;4971223;28;20494;-87
2022/06/28 18:53:19;;;;;;;1.67;0.70;;;22.50;99.90;;;;;;4989548;28;20069;-87
2022/06/28 18:55:48;;;;;;;1.73;0.68;;;22.50;99.90;;;;;;4990701;28;20038;-87
2022/06/28 18:58:18;;;;;;;1.80;1.00;;;22.50;99.90;;;;;;4973001;28;20391;-88
2022/06/28 19:00:44;;;;;;;1.58;0.80;;;22.40;99.90;;;;;;4975089;28;20033;-88
2022/06/28 19:03:10;;;;;;;1.27;0.65;;;22.40;99.90;;;;;;4977106;28;20034;-89
2022/06/28 19:05:37;;;;;;;1.88;0.70;;;22.40;99.90;;;;;;4988778;28;20025;-88
2022/06/28 19:08:04;;;;;;;2.20;0.90;;;22.30;99.90;;;;;;5009314;28;20081;-89
2022/06/28 19:10:31;;;;;;;2.17;0.90;;;22.30;99.90;;;;;;4992934;28;20034;-89
2022/06/28 19:12:56;;;;;;;1.23;0.70;;;22.60;99.90;;;;;;4981656;28;20046;-89
2022/06/28 19:15:22;;;;;;;1.85;0.80;;;22.10;99.90;;;;;;4972029;28;20585;-88
2022/06/28 19:17:49;;;;;;;1.50;0.80;;;22.00;99.90;;;;;;4990848;28;20101;-90
2022/06/28 19:20:17;;;;;;;1.45;0.70;;;21.70;99.90;;;;;;4974590;28;20088;-90
2022/06/28 19:22:43;;;;;;;2.17;0.80;;;22.00;99.90;;;;;;4968735;28;20026;-90
2022/06/28 19:25:14;;;;;;;1.08;0.70;;;21.80;99.90;;;;;;4981599;28;20023;-90